Hualapai Flat, Nevada Weather observations

Data are for 10 minute period ending at time listed.
 Day   Time   Solar   Ave.   Ave.  Ave.  Vector  Max.   Baro.   Total    
  of    of     Rad.   Air    Rel.  Wind   Wind   Wind  Press.  Precip.   
Year   Day            Temp.  Hum.  Speed  Dir.   Gust                    
2014   (PST)  Kw/m2    F      %     mph   deg.    mph    mb.     in.     
-------------------------------------------------------------------------
 209   13:30   0.87   90.1    31    3.4    34     8.3   878.1    0.00 
 209   13:40   0.83   92.7    18    2.4   144     4.4   878.0    0.00 
 209   13:50   0.76   94.8    17    3.7   122     9.9   877.9    0.00 
 209   14:00   0.57   96.9    15    5.9   186     9.3   877.9    0.00 
 209   14:10   0.36   95.5    16    4.1   183     6.4   877.9    0.00 
 209   14:20   0.26   94.6    16    3.5   161     5.5   877.7    0.00 
 209   14:30   0.27   92.6    19    3.6   126     8.2   877.6    0.00 
 209   14:40   0.29   93.3    15    3.0   181     5.9   877.5    0.00 
 209   14:50   0.33   94.4    22    3.8   179     5.8   877.3    0.00 
 209   15:00   0.35   94.2    26    3.9   187     6.4   877.2    0.00 
 209   15:10   0.26   92.8    38    1.1    52     2.8   877.2    0.00 
 209   15:20   0.17   88.7    36    1.6    30     3.1   877.1    0.00 
 209   15:30   0.15   90.5    19    1.9   107     4.7   877.0    0.00 
 209   15:40   0.18   88.9    25    3.2    83     4.4   876.9    0.00 
 209   15:50   0.19   89.2    21    3.7   118     6.1   876.8    0.00 
 209   16:00   0.15   90.1    21    5.1   145     7.9   876.6    0.00 
 209   16:10   0.12   87.6    26    2.9    84     7.1   876.6    0.00 
 209   16:20   0.10   87.3    20    4.0    34     7.8   876.7    0.00 
 209   16:30   0.08   85.6    36    5.2    31     6.6   876.7    0.00 
 209   16:40   0.08   80.5    37    8.7    24    25.4   877.0    0.00 
 209   16:50   0.08   84.6    21   11.6   305    29.1   877.5    0.00 
 209   17:00   0.08   87.2    17    6.8   292    14.5   877.2    0.00 
 209   17:10   0.07   89.3    16    4.5   138     9.1   876.9    0.00 
 209   17:20   0.22   88.0    17    6.3    55    15.1   876.9    0.00 
 209   17:30   0.30   91.7    15    4.7   128     8.3   876.7    0.00 
 209   17:40   0.22   92.6    20    7.8   181    15.6   876.7    0.00 
 209   17:50   0.18   89.6    17   11.5   222    23.0   876.7    0.00 
 209   18:00   0.10   89.2    15    5.5   254    17.2   876.8    0.00 
 209   18:10   0.07   88.7    19    3.5   219     6.7   876.9    0.00 
 209   18:20   0.05   85.9    20    5.9   223    11.6   876.9    0.00 
 209   18:30   0.05   86.1    19    6.1   242     9.8   876.8    0.00 
 209   18:40   0.04   86.8    17    3.2   217     7.4   876.8    0.00 
 209   18:50   0.03   86.1    22    2.5   236     3.9   876.7    0.00 
 209   19:00   0.02   86.8    16    3.1   253     4.7   876.7    0.00 
 209   19:10   0.01   87.7    16    4.7   289     5.8   876.8    0.00 
 209   19:20   0.00   85.3    19    5.3   281     6.4   876.7    0.00 
 209   19:30   0.00   83.6    20    5.4   278     6.4   876.8    0.00 
 209   19:40   0.00   83.1    21    6.2   271     8.3   876.8    0.00 
 209   19:50   0.00   83.1    20    7.2   262    10.6   876.9    0.00 
 209   20:00   0.00   83.8    19    5.8   277     8.9   877.1    0.00 
 209   20:10   0.00   83.5    19    7.1   264     9.6   877.2    0.00 
 209   20:20   0.00   83.3    19    7.0   273    11.9   877.3    0.00 
 209   20:30   0.00   85.0    16    9.5   268    14.2   877.3    0.00 
 209   20:40   0.00   84.5    17    7.8   272    11.7   877.3    0.00 
 209   20:50   0.00   84.8    16    7.6   288    12.3   877.5    0.00 
 209   21:00   0.00   84.1    17    5.5   292     8.2   877.5    0.00 
 209   21:10   0.00   82.4    19    6.2   329    10.3   877.4    0.00 
 209   21:20   0.00   83.9    16    8.9   319    13.4   877.4    0.00 
 209   21:30   0.00   84.3    18    4.8   314    10.7   877.5    0.00 
 209   21:40   0.00   82.5    19    3.0   339     4.6   877.5    0.00 
 209   21:50   0.00   82.3    19    4.8   290     8.8   877.4    0.00 
 209   22:00   0.00   81.3    19    6.2   282    11.1   877.3    0.00 
 209   22:10   0.00   82.8    18    6.0   298    12.6   877.3    0.00 
 209   22:20   0.00   78.7    25    4.4    58     7.4   877.5    0.00 
 209   22:30   0.00   78.2    22    0.7   323     3.0   877.6    0.00 
 209   22:40   0.00   79.5    21    1.8   200     2.8   877.6    0.00 
 209   22:50   0.00   79.1    21    1.3   339     5.8   877.7    0.00 
 209   23:00   0.00   80.7    18    1.9   300     3.5   877.6    0.00 
 209   23:10   0.00   82.0    16    4.3   320    10.0   877.6    0.00 
 209   23:20   0.00   81.1    18    5.3   313    10.3   877.6    0.00 
 209   23:30   0.00   80.9    18    3.1   306    10.4   877.6    0.00 
 209   23:40   0.00   80.9    20    3.1   335    10.0   877.7    0.00 
 209   23:50   0.00   81.8    16    4.3   257    11.2   877.8    0.00 
 210    0:00   0.00   82.8    16    4.2   257     9.9   877.7    0.00 
 210    0:10   0.00   80.6    20    2.9   312     5.4   877.8    0.00 
 210    0:20   0.00   80.4    19    5.1   294    11.0   877.7    0.00 
 210    0:30   0.00   80.0    19    7.4   280    12.1   877.7    0.00 
 210    0:40   0.00   80.3    18    8.4   280    12.7   877.7    0.00 
 210    0:50   0.00   79.8    19    6.4   277    10.7   877.7    0.00 
 210    1:00   0.00   79.8    19    6.6   281    10.4   877.7    0.00 
 210    1:10   0.00   79.5    20    5.8   282     8.4   877.7    0.00 
 210    1:20   0.00   78.7    21    5.4   261     7.3   877.7    0.00 
 210    1:30   0.00   78.3    21    5.0   266     7.4   877.7    0.00 
 210    1:40   0.00   78.9    20    3.2   254     5.8   877.7    0.00 
 210    1:50   0.00   78.1    21    3.6   278     5.9   877.6    0.00 
 210    2:00   0.00   77.2    22    2.8   265     4.7   877.7    0.00 
 210    2:10   0.00   77.2    22    2.7   270     7.3   877.8    0.00 
 210    2:20   0.00   77.6    22    7.2   302    11.7   877.8    0.00 
 210    2:30   0.00   78.1    22    7.2   299    11.0   877.8    0.00 
 210    2:40   0.00   77.8    22    6.0   309    11.2   877.8    0.00 
 210    2:50   0.00   78.0    23    4.6   325     9.8   877.8    0.00 
 210    3:00   0.00   77.0    25    4.8   340     7.8   877.8    0.00 
 210    3:10   0.00   75.3    26    6.7   341     9.9   877.9    0.00 
 210    3:20   0.00   75.6    25    7.0   325    11.2   877.9    0.00 
 210    3:30   0.00   75.7    26    6.2   336     9.3   878.0    0.00 
 210    3:40   0.00   74.6    27    7.5   325    11.1   878.1    0.00 
 210    3:50   0.00   75.9    25    8.2   320    12.4   878.0    0.00 
 210    4:00   0.00   76.7    24    9.0   314    14.3   878.0    0.00 
 210    4:10   0.00   76.4    24    8.2   315    12.6   878.1    0.00 
 210    4:20   0.00   76.8    24    8.6   312    13.4   878.1    0.00 
 210    4:30   0.00   76.9    24    8.6   313    13.3   878.1    0.00 
 210    4:40   0.00   76.4    25    6.1   317     8.0   878.2    0.00 
 210    4:50   0.00   75.3    26    7.0   309     9.7   878.3    0.00 
 210    5:00   0.00   75.2    27    6.1   311     8.9   878.4    0.00 
 210    5:10   0.00   74.5    28    5.1   305     7.4   878.6    0.00 
 210    5:20   0.00   72.9    30    5.9   294     7.3   878.6    0.00 
 210    5:30   0.02   70.8    36    5.1   322     6.6   878.8    0.00 
 210    5:40   0.01   69.6    40    5.3   328     7.1   879.0    0.00 
 210    5:50   0.01   69.3    42    5.2   324     7.7   879.1    0.00 
 210    6:00   0.02   71.7    36    5.7   317     7.4   879.2    0.00 
 210    6:10   0.05   72.4    37    5.0   316     6.5   879.2    0.00 
 210    6:20   0.06   72.4    34    4.2   332     5.3   879.2    0.00 
 210    6:30   0.06   76.2    28    3.6   305     4.4   879.3    0.00 
 210    6:40   0.08   73.8    37    4.5   301     5.7   879.5    0.00 
 210    6:50   0.11   73.3    37    5.8   317     7.4   879.5    0.00 
 210    7:00   0.11   73.5    39    3.8   313     5.9   879.7    0.00 
 210    7:10   0.12   74.8    32    1.8   160     3.3   879.9    0.00 
 210    7:20   0.16   75.7    33    1.9   123     3.4   879.9    0.00 
 210    7:30   0.20   75.7    41    2.1    46     4.2   880.0    0.00 
 210    7:40   0.25   75.5    52    3.6    56     4.4   879.9    0.00 
 210    7:50   0.24   76.3    43    2.4    11     5.5   879.9    0.00 
 210    8:00   0.19   76.6    48    1.5   325     3.1   879.9    0.00 
 210    8:10   0.21   77.5    46    0.8     7     2.7   879.9    0.00 
 210    8:20   0.40   79.0    42    2.9   309     7.0   879.8    0.00 
 210    8:30   0.55   80.1    36    3.2   348     6.4   879.8    0.00 
 210    8:40   0.67   81.0    43    3.0    53     6.0   879.6    0.00 
 210    8:50   0.69   82.4    37    3.5    46     6.8   879.5    0.00 
 210    9:00   0.53   83.8    32    4.1   333     9.3   879.5    0.00 
 210    9:10   0.75   84.2    34    3.5   346     6.9   879.5    0.00 
 210    9:20   0.41   82.8    34    4.1   313     8.0   879.6    0.00 
 210    9:30   0.46   80.9    40    3.9     4     7.0   879.7    0.00 
 210    9:40   0.55   81.8    38    3.6   346     6.6   879.7    0.00 
 210    9:50   0.57   83.6    34    2.9    14     9.4   879.6    0.00 
 210   10:00   0.67   84.7    34    2.7    41     4.5   879.5    0.00 
 210   10:10   0.92   85.6    31    3.3    57     6.6   879.6    0.00 
 210   10:20   0.82   87.4    26    2.2     6     6.1   879.5    0.00 
 210   10:30   0.52   85.4    32    4.7    33     9.5   879.5    0.00 
 210   10:40   0.56   83.1    43    3.6    37     7.0   879.4    0.00 
 210   10:50   0.68   83.9    34    2.9   353     9.5   879.3    0.00 
 210   11:00   0.67   86.5    38    3.9   343    10.8   879.2    0.00 
 210   11:10   0.74   84.3    34    4.5   345    11.0   879.1    0.00 
 210   11:20   0.84   85.8    34    6.8     1    13.3   879.0    0.00 
 210   11:30   0.98   86.6    36    5.2    24    11.9   878.9    0.00 
 210   11:40   0.87   85.6    39    7.0    35    11.2   878.9    0.00 
 210   11:50   0.72   85.9    31    5.7    25     8.8   878.9    0.00 
 210   12:00   0.96   88.2    34    4.6    42     9.5   878.8    0.00 
 210   12:10   0.92   87.8    33    4.8     9     9.3   878.8    0.00 
 210   12:20   0.56   86.6    33    6.5    42    10.2   878.8    0.00 
 210   12:30   0.37   83.8    36    5.9    18    10.3   878.7    0.00 
 210   12:40   0.33   83.1    33    6.0    12    12.2   878.6    0.00 
 210   12:50   0.31   84.5    32    2.7   359     5.3   878.4    0.00 
 210   13:00   0.30   85.1    33    6.0     3    11.3   878.4    0.00 
 210   13:10   0.28   85.1    37    2.6     6     4.4   878.5    0.00 
 210   13:20   0.24   83.8    32    7.2   321    12.5   878.5    0.00 

Return to Hualapai Flat graphs page.


Western Regional Climate Center,wrcc@dri.edu